| time (UTC) | temp F | wind direction | speed knots | gust knots | rain 1hr in | rain 24hr in | rain mn in | humidity % | barometer mb |
| 20260509223929 | 60 | 285 | 1.7 | 2.6 | 0.00 | 0.00 | 0.00 | 68 | 1004.4 |
| 20260509223425 | 60 | 259 | 0.0 | 0.9 | 0.00 | 0.00 | 0.00 | 69 | 1004.6 |
| 20260509222924 | 60 | 244 | 1.7 | 2.6 | 0.00 | 0.00 | 0.00 | 69 | 1004.5 |
| 20260509222424 | 59 | 186 | 4.3 | 7.0 | 0.00 | 0.00 | 0.00 | 69 | 1004.4 |
| 20260509221920 | 59 | 248 | 0.9 | 1.7 | 0.00 | 0.00 | 0.00 | 69 | 1004.6 |
| 20260509221417 | 59 | 257 | 3.5 | 6.1 | 0.00 | 0.00 | 0.00 | 69 | 1004.5 |
| 20260509220912 | 60 | 258 | 1.7 | 3.5 | 0.00 | 0.00 | 0.00 | 68 | 1004.6 |
| 20260509220408 | 60 | 245 | 0.9 | 2.6 | 0.00 | 0.00 | 0.00 | 68 | 1004.5 |
| 20260509215904 | 60 | 241 | 1.7 | 2.6 | 0.00 | 0.00 | 0.00 | 70 | 1004.3 |
| 20260509215400 | 59 | 253 | 0.0 | 0.9 | 0.00 | 0.00 | 0.00 | 69 | 1004.5 |
| 20260509214858 | 60 | 239 | 5.2 | 6.1 | 0.00 | 0.00 | 0.00 | 68 | 1004.7 |
| 20260509214355 | 60 | 254 | 3.5 | 3.5 | 0.00 | 0.00 | 0.00 | 67 | 1004.6 |
| 20260509213852 | 60 | 223 | 2.6 | 3.5 | 0.00 | 0.00 | 0.00 | 69 | 1004.8 |
| 20260509213347 | 60 | 241 | 5.2 | 6.1 | 0.00 | 0.00 | 0.00 | 68 | 1004.9 |
| 20260509212845 | 60 | 246 | 1.7 | 2.6 | 0.00 | 0.00 | 0.00 | 67 | 1004.8 |
| 20260509212343 | 60 | 241 | 5.2 | 7.0 | 0.00 | 0.00 | 0.00 | 67 | 1004.9 |
| 20260509211838 | 61 | 248 | 6.1 | 7.0 | 0.00 | 0.00 | 0.00 | 67 | 1004.9 |
| 20260509211334 | 60 | 204 | 3.5 | 7.0 | 0.00 | 0.00 | 0.00 | 69 | 1004.9 |
| 20260509210831 | 60 | 236 | 4.3 | 6.1 | 0.00 | 0.00 | 0.00 | 68 | 1004.9 |
| 20260509210329 | 59 | 237 | 1.7 | 2.6 | 0.00 | 0.00 | 0.00 | 68 | 1005.1 |
| 20260509205828 | 60 | 248 | 0.9 | 1.7 | 0.00 | 0.00 | 0.00 | 68 | 1004.8 |
| 20260509205323 | 61 | 255 | 3.5 | 6.1 | 0.00 | 0.00 | 0.00 | 67 | 1004.8 |
| 20260509204820 | 61 | 262 | 5.2 | 6.1 | 0.00 | 0.00 | 0.00 | 66 | 1005.1 |
| 20260509204316 | 60 | 242 | 1.7 | 2.6 | 0.00 | 0.00 | 0.00 | 67 | 1004.9 |
| 20260509203812 | 60 | 234 | 4.3 | 7.0 | 0.00 | 0.00 | 0.00 | 67 | 1004.9 |
| 20260509203309 | 61 | 234 | 5.2 | 7.0 | 0.00 | 0.00 | 0.00 | 65 | 1005.0 |
| 20260509202806 | 62 | 237 | 3.5 | 3.5 | 0.00 | 0.00 | 0.00 | 65 | 1004.8 |
| 20260509202306 | 62 | 154 | 4.3 | 7.8 | 0.00 | 0.00 | 0.00 | 64 | 1004.8 |
| 20260509201801 | 62 | 239 | 2.6 | 3.5 | 0.00 | 0.00 | 0.00 | 62 | 1004.7 |
| 20260509201258 | 62 | 212 | 0.9 | 1.7 | 0.00 | 0.00 | 0.00 | 62 | 1004.9 |
| 20260509200754 | 63 | 257 | 3.5 | 5.2 | 0.00 | 0.00 | 0.00 | 59 | 1005.2 |
| 20260509200250 | 64 | 233 | 5.2 | 7.8 | 0.00 | 0.00 | 0.00 | 58 | 1005.2 |
| 20260509195746 | 63 | 237 | 2.6 | 3.5 | 0.00 | 0.00 | 0.00 | 59 | 1005.0 |
| 20260509195242 | 65 | 244 | 5.2 | 7.8 | 0.00 | 0.00 | 0.00 | 56 | 1004.7 |
| 20260509194736 | 64 | 150 | 3.5 | 7.8 | 0.00 | 0.00 | 0.00 | 57 | 1004.8 |
| 20260509194233 | 64 | 270 | 3.5 | 6.1 | 0.00 | 0.00 | 0.00 | 54 | 1004.8 |
| 20260509193730 | 64 | 252 | 0.9 | 0.9 | 0.00 | 0.00 | 0.00 | 54 | 1004.8 |
| 20260509193229 | 64 | 231 | 1.7 | 2.6 | 0.00 | 0.00 | 0.00 | 56 | 1004.7 |
| 20260509192726 | 64 | 260 | 1.7 | 2.6 | 0.00 | 0.00 | 0.00 | 52 | 1004.9 |
| 20260509192221 | 64 | 267 | 3.5 | 7.0 | 0.00 | 0.00 | 0.00 | 51 | 1005.0 |
| 20260509191716 | 65 | 233 | 5.2 | 6.1 | 0.00 | 0.00 | 0.00 | 46 | 1005.1 |
| 20260509191213 | 64 | 241 | 0.9 | 2.6 | 0.00 | 0.00 | 0.00 | 47 | 1005.0 |
| 20260509190709 | 62 | 227 | 3.5 | 5.2 | 0.00 | 0.00 | 0.00 | 48 | 1005.5 |
| 20260509190206 | 64 | 177 | 6.1 | 7.0 | 0.00 | 0.00 | 0.00 | 45 | 1005.3 |
| 20260509185704 | 65 | 92 | 3.5 | 6.1 | 0.00 | 0.00 | 0.00 | 46 | 1005.2 |
| 20260509185200 | 65 | 175 | 2.6 | 3.5 | 0.00 | 0.00 | 0.00 | 44 | 1005.4 |
| 20260509184658 | 64 | 245 | 3.5 | 3.5 | 0.00 | 0.00 | 0.00 | 43 | 1005.6 |
| 20260509184154 | 66 | 252 | 1.7 | 2.6 | 0.00 | 0.00 | 0.00 | 43 | 1005.3 |
| 20260509183651 | 64 | 247 | 3.5 | 5.2 | 0.00 | 0.00 | 0.00 | 44 | 1005.5 |
| 20260509183146 | 65 | 248 | 5.2 | 7.0 | 0.00 | 0.00 | 0.00 | 44 | 1005.4 |
| 20260509182642 | 66 | 243 | 3.5 | 5.2 | 0.00 | 0.00 | 0.00 | 49 | 1005.5 |
| 20260509182139 | 64 | 187 | 1.7 | 2.6 | 0.00 | 0.00 | 0.00 | 47 | 1005.6 |
| 20260509181637 | 64 | 257 | 2.6 | 3.5 | 0.00 | 0.00 | 0.00 | 47 | 1005.6 |
| 20260509181135 | 62 | 241 | 3.5 | 6.1 | 0.00 | 0.00 | 0.00 | 50 | 1005.7 |
| 20260509180631 | 62 | 235 | 4.3 | 5.2 | 0.00 | 0.00 | 0.00 | 50 | 1005.6 |
| 20260509180128 | 62 | 251 | 1.7 | 1.7 | 0.00 | 0.00 | 0.00 | 48 | 1005.7 |
| 20260509175623 | 64 | 258 | 0.9 | 1.7 | 0.00 | 0.00 | 0.00 | 49 | 1005.7 |
| 20260509175121 | 63 | 235 | 4.3 | 5.2 | 0.00 | 0.00 | 0.00 | 52 | 1005.7 |
| 20260509174616 | 62 | 210 | 0.9 | 1.7 | 0.00 | 0.00 | 0.00 | 52 | 1005.7 |
| 20260509174112 | 63 | 242 | 1.7 | 2.6 | 0.00 | 0.00 | 0.00 | 49 | 1005.9 |
| 20260509173607 | 64 | 247 | 3.5 | 3.5 | 0.00 | 0.00 | 0.00 | 46 | 1005.9 |
| 20260509173103 | 64 | 236 | 2.6 | 6.1 | 0.00 | 0.00 | 0.00 | 50 | 1006.0 |
| 20260509172600 | 64 | 241 | 4.3 | 6.1 | 0.00 | 0.00 | 0.00 | 48 | 1006.1 |
| 20260509172056 | 64 | 237 | 3.5 | 5.2 | 0.00 | 0.00 | 0.00 | 49 | 1006.0 |
| 20260509171552 | 64 | 242 | 3.5 | 5.2 | 0.00 | 0.00 | 0.00 | 48 | 1006.1 |
| 20260509171048 | 65 | 245 | 1.7 | 1.7 | 0.00 | 0.00 | 0.00 | 48 | 1006.2 |
| 20260509170545 | 64 | 247 | 5.2 | 7.0 | 0.00 | 0.00 | 0.00 | 47 | 1006.2 |
| 20260509170041 | 63 | 226 | 0.0 | 0.9 | 0.00 | 0.00 | 0.00 | 53 | 1006.3 |
| 20260509165540 | 63 | 236 | 3.5 | 5.2 | 0.00 | 0.00 | 0.00 | 48 | 1006.2 |
| 20260509165035 | 64 | 232 | 3.5 | 5.2 | 0.00 | 0.00 | 0.00 | 50 | 1006.3 |
| 20260509164531 | 63 | 238 | 1.7 | 5.2 | 0.00 | 0.00 | 0.00 | 47 | 1006.4 |
| 20260509164027 | 63 | 236 | 3.5 | 5.2 | 0.00 | 0.00 | 0.00 | 49 | 1006.5 |
| 20260509163525 | 61 | 261 | 1.7 | 1.7 | 0.00 | 0.00 | 0.00 | 50 | 1006.4 |
| 20260509163020 | 63 | 176 | 1.7 | 2.6 | 0.00 | 0.00 | 0.00 | 44 | 1006.7 |
| 20260509162518 | 63 | 269 | 5.2 | 7.0 | 0.00 | 0.00 | 0.00 | 44 | 1006.8 |
| 20260509162014 | 62 | 241 | 1.7 | 2.6 | 0.00 | 0.00 | 0.00 | 46 | 1007.1 |
| 20260509161511 | 63 | 248 | 1.7 | 2.6 | 0.00 | 0.00 | 0.00 | 43 | 1006.7 |
| 20260509161011 | 63 | 149 | 0.0 | 0.9 | 0.00 | 0.00 | 0.00 | 44 | 1006.9 |
| 20260509160506 | 63 | 241 | 3.5 | 5.2 | 0.00 | 0.00 | 0.00 | 44 | 1007.1 |
| 20260509160002 | 62 | 233 | 0.9 | 1.7 | 0.00 | 0.00 | 0.00 | 48 | 1007.3 |
| 20260509155459 | 62 | 149 | 3.5 | 5.2 | 0.00 | 0.00 | 0.00 | 47 | 1007.3 |
| 20260509154955 | 61 | 243 | 3.5 | 3.5 | 0.00 | 0.00 | 0.00 | 46 | 1007.5 |
| 20260509154451 | 62 | 243 | 2.6 | 3.5 | 0.00 | 0.00 | 0.00 | 46 | 1007.3 |
| 20260509153949 | 62 | 242 | 2.6 | 2.6 | 0.00 | 0.00 | 0.00 | 48 | 1007.4 |
| 20260509153445 | 61 | 246 | 2.6 | 2.6 | 0.00 | 0.00 | 0.00 | 46 | 1007.5 |
| 20260509152943 | 62 | 182 | 2.6 | 5.2 | 0.00 | 0.00 | 0.00 | 46 | 1007.6 |
| 20260509152438 | 61 | 247 | 1.7 | 1.7 | 0.00 | 0.00 | 0.00 | 45 | 1007.7 |
| 20260509151936 | 63 | 166 | 1.7 | 1.7 | 0.00 | 0.00 | 0.00 | 46 | 1007.7 |
| 20260509151432 | 61 | 238 | 1.7 | 2.6 | 0.00 | 0.00 | 0.00 | 45 | 1007.6 |
| 20260509150930 | 61 | 251 | 1.7 | 3.5 | 0.00 | 0.00 | 0.00 | 45 | 1007.7 |
| 20260509150427 | 61 | 239 | 2.6 | 2.6 | 0.00 | 0.00 | 0.00 | 47 | 1007.9 |
| 20260509145925 | 62 | 244 | 5.2 | 6.1 | 0.00 | 0.00 | 0.00 | 43 | 1007.9 |
| 20260509145425 | 61 | 254 | 1.7 | 2.6 | 0.00 | 0.00 | 0.00 | 44 | 1007.9 |
| 20260509144921 | 60 | 226 | 2.6 | 3.5 | 0.00 | 0.00 | 0.00 | 45 | 1008.0 |
| 20260509144418 | 60 | 131 | 4.3 | 6.1 | 0.00 | 0.00 | 0.00 | 44 | 1008.1 |
| 20260509143915 | 60 | 169 | 1.7 | 5.2 | 0.00 | 0.00 | 0.00 | 47 | 1008.1 |
| 20260509143412 | 59 | 237 | 3.5 | 3.5 | 0.00 | 0.00 | 0.00 | 45 | 1008.2 |
| 20260509142908 | 60 | 185 | 4.3 | 6.1 | 0.00 | 0.00 | 0.00 | 46 | 1008.2 |
| 20260509142405 | 59 | 168 | 3.5 | 5.2 | 0.00 | 0.00 | 0.00 | 45 | 1008.4 |
| 20260509141901 | 60 | 212 | 0.0 | 0.9 | 0.00 | 0.00 | 0.00 | 48 | 1008.3 |
| 20260509141358 | 59 | 255 | 2.6 | 3.5 | 0.00 | 0.00 | 0.00 | 46 | 1008.4 |
| 20260509140854 | 59 | 260 | 1.7 | 1.7 | 0.00 | 0.00 | 0.00 | 43 | 1008.3 |
| 20260509140351 | 59 | 236 | 2.6 | 3.5 | 0.00 | 0.00 | 0.00 | 45 | 1008.4 |
| 20260509135849 | 58 | 239 | 0.9 | 2.6 | 0.00 | 0.00 | 0.00 | 47 | 1008.3 |
| 20260509135347 | 57 | 239 | 3.5 | 3.5 | 0.00 | 0.00 | 0.00 | 45 | 1008.6 |
| 20260509134844 | 57 | 251 | 1.7 | 2.6 | 0.00 | 0.00 | 0.00 | 43 | 1008.5 |
| 20260509134341 | 57 | 189 | 0.9 | 1.7 | 0.00 | 0.00 | 0.00 | 46 | 1008.4 |
| 20260509133837 | 57 | 279 | 0.9 | 1.7 | 0.00 | 0.00 | 0.00 | 45 | 1008.6 |
| 20260509133334 | 57 | 239 | 2.6 | 2.6 | 0.00 | 0.00 | 0.00 | 44 | 1008.6 |
| 20260509132834 | 56 | 261 | 0.9 | 0.9 | 0.00 | 0.00 | 0.00 | 46 | 1008.7 |
| 20260509132331 | 55 | 242 | 5.2 | 6.1 | 0.00 | 0.00 | 0.00 | 44 | 1008.5 |
| 20260509131828 | 56 | 220 | 0.9 | 1.7 | 0.00 | 0.00 | 0.00 | 46 | 1008.6 |
| 20260509131325 | 55 | 243 | 2.6 | 2.6 | 0.00 | 0.00 | 0.00 | 46 | 1008.4 |
| 20260509130821 | 55 | 237 | 3.5 | 5.2 | 0.00 | 0.00 | 0.00 | 44 | 1008.6 |
| 20260509130317 | 54 | 188 | 0.9 | 1.7 | 0.00 | 0.00 | 0.00 | 46 | 1008.7 |
| 20260509125814 | 54 | 270 | 4.3 | 6.1 | 0.00 | 0.00 | 0.00 | 44 | 1008.6 |
| 20260509125310 | 54 | 241 | 2.6 | 2.6 | 0.00 | 0.00 | 0.00 | 43 | 1008.7 |
| 20260509124807 | 55 | 79 | 3.5 | 5.2 | 0.00 | 0.00 | 0.00 | 43 | 1008.5 |
| 20260509124303 | 54 | 241 | 0.9 | 1.7 | 0.00 | 0.00 | 0.00 | 45 | 1008.5 |
| 20260509123802 | 54 | 260 | 1.7 | 2.6 | 0.00 | 0.00 | 0.00 | 45 | 1008.5 |
| 20260509123259 | 54 | 235 | 2.6 | 3.5 | 0.00 | 0.00 | 0.00 | 47 | 1008.6 |
| 20260509122754 | 53 | 189 | 1.7 | 3.5 | 0.00 | 0.00 | 0.00 | 48 | 1008.7 |
| 20260509122251 | 53 | 243 | 0.9 | 1.7 | 0.00 | 0.00 | 0.00 | 47 | 1008.8 |
| 20260509121748 | 53 | 237 | 2.6 | 2.6 | 0.00 | 0.00 | 0.00 | 48 | 1008.8 |
| 20260509121245 | 52 | 244 | 0.9 | 1.7 | 0.00 | 0.00 | 0.00 | 47 | 1008.9 |
| 20260509120743 | 52 | 237 | 0.9 | 1.7 | 0.00 | 0.00 | 0.00 | 49 | 1008.8 |
| 20260509120241 | 51 | 225 | 0.9 | 1.7 | 0.00 | 0.00 | 0.00 | 53 | 1008.9 |
| 20260509115739 | 50 | 244 | 2.6 | 3.5 | 0.00 | 0.00 | 0.00 | 52 | 1008.7 |
| 20260509115235 | 50 | 226 | 0.9 | 0.9 | 0.00 | 0.00 | 0.00 | 55 | 1008.9 |
| 20260509114734 | 49 | 242 | 0.0 | 0.9 | 0.00 | 0.00 | 0.00 | 54 | 1009.0 |
| 20260509114232 | 49 | 242 | 0.9 | 0.9 | 0.00 | 0.00 | 0.00 | 54 | 1008.8 |
| 20260509113731 | 48 | 238 | 0.9 | 0.9 | 0.00 | 0.00 | 0.00 | 55 | 1008.8 |
| 20260509113227 | 47 | 261 | 0.0 | 0.9 | 0.00 | 0.00 | 0.00 | 57 | 1008.9 |
| 20260509112724 | 47 | 247 | 0.9 | 0.9 | 0.00 | 0.00 | 0.00 | 60 | 1008.8 |
| 20260509112221 | 47 | 253 | 0.9 | 0.9 | 0.00 | 0.00 | 0.00 | 57 | 1008.9 |
| 20260509111718 | 47 | 239 | 2.6 | 2.6 | 0.00 | 0.00 | 0.00 | 59 | 1008.7 |
| 20260509111215 | 46 | 251 | 1.7 | 1.7 | 0.00 | 0.00 | 0.00 | 59 | 1008.7 |
| 20260509110713 | 46 | 256 | 0.0 | 0.9 | 0.00 | 0.00 | 0.00 | 61 | 1008.9 |
| 20260509110209 | 45 | 253 | 0.0 | 0.0 | 0.00 | 0.00 | 0.00 | 61 | 1008.7 |
| 20260509105707 | 45 | 259 | 0.9 | 0.9 | 0.00 | 0.00 | 0.00 | 62 | 1008.6 |
| 20260509105204 | 44 | 261 | 0.9 | 1.7 | 0.00 | 0.00 | 0.00 | 63 | 1008.8 |
| 20260509104701 | 44 | 257 | 0.0 | 0.0 | 0.00 | 0.00 | 0.00 | 65 | 1008.6 |
| 20260509104158 | 43 | 213 | 0.9 | 1.7 | 0.00 | 0.00 | 0.00 | 65 | 1008.5 |
| 20260509103656 | 43 | 270 | 0.9 | 0.9 | 0.00 | 0.00 | 0.00 | 66 | 1008.4 |
| 20260509103153 | 42 | 229 | 0.0 | 0.9 | 0.00 | 0.00 | 0.00 | 66 | 1008.5 |
| 20260509102651 | 42 | 256 | 0.0 | 0.0 | 0.00 | 0.00 | 0.00 | 69 | 1008.4 |
| 20260509102148 | 41 | 223 | 1.7 | 1.7 | 0.00 | 0.00 | 0.00 | 69 | 1008.5 |
| 20260509101644 | 41 | 239 | 0.0 | 0.9 | 0.00 | 0.00 | 0.00 | 71 | 1008.6 |
| 20260509101141 | 40 | 219 | 0.0 | 0.0 | 0.00 | 0.00 | 0.00 | 72 | 1008.7 |
| 20260509100638 | 40 | 216 | 0.0 | 0.0 | 0.00 | 0.00 | 0.00 | 73 | 1008.5 |
| 20260509100135 | 39 | 194 | 0.0 | 0.9 | 0.00 | 0.00 | 0.00 | 74 | 1008.5 |
| 20260509095632 | 38 | 240 | 0.0 | 0.0 | 0.00 | 0.00 | 0.00 | 76 | 1008.6 |
| 20260509095129 | 38 | 239 | 0.0 | 0.0 | 0.00 | 0.00 | 0.00 | 77 | 1008.6 |
| 20260509094626 | 38 | 239 | 0.0 | 0.0 | 0.00 | 0.00 | 0.00 | 77 | 1008.5 |
| 20260509094123 | 38 | 240 | 0.0 | 0.9 | 0.00 | 0.00 | 0.00 | 77 | 1008.7 |
| 20260509093622 | 37 | 244 | 0.0 | 0.9 | 0.00 | 0.00 | 0.00 | 78 | 1008.7 |
| 20260509093118 | 37 | 245 | 0.0 | 0.0 | 0.00 | 0.00 | 0.00 | 79 | 1008.8 |
| 20260509092616 | 37 | 246 | 0.0 | 0.0 | 0.00 | 0.00 | 0.00 | 79 | 1008.6 |
| 20260509092114 | 37 | 246 | 0.0 | 0.0 | 0.00 | 0.00 | 0.00 | 79 | 1008.6 |
| 20260509091612 | 37 | 247 | 0.0 | 0.0 | 0.00 | 0.00 | 0.00 | 79 | 1008.6 |
| 20260509091108 | 36 | 247 | 0.0 | 0.0 | 0.00 | 0.00 | 0.00 | 79 | 1008.7 |
| 20260509090606 | 36 | 247 | 0.0 | 0.0 | 0.00 | 0.00 | 0.00 | 79 | 1008.5 |
| 20260509085600 | 37 | 246 | 0.0 | 0.9 | 0.00 | 0.00 | 0.00 | 77 | 1008.9 |
| 20260509085056 | 36 | 247 | 0.0 | 0.9 | 0.00 | 0.00 | 0.00 | 78 | 1008.8 |
| 20260509084553 | 36 | 247 | 0.0 | 0.0 | 0.00 | 0.00 | 0.00 | 79 | 1008.8 |
| 20260509084050 | 35 | 247 | 0.0 | 0.0 | 0.00 | 0.00 | 0.00 | 80 | 1008.8 |
| 20260509083548 | 35 | 247 | 0.0 | 0.0 | 0.00 | 0.00 | 0.00 | 80 | 1008.9 |
| 20260509083044 | 36 | 247 | 0.0 | 0.0 | 0.00 | 0.00 | 0.00 | 79 | 1008.9 |
| 20260509082542 | 35 | 247 | 0.0 | 0.0 | 0.00 | 0.00 | 0.00 | 79 | 1009.0 |
| 20260509082039 | 36 | 247 | 0.0 | 0.0 | 0.00 | 0.00 | 0.00 | 79 | 1008.8 |
| 20260509081536 | 35 | 247 | 0.0 | 0.0 | 0.00 | 0.00 | 0.00 | 79 | 1009.0 |
| 20260509081032 | 35 | 247 | 0.0 | 0.0 | 0.00 | 0.00 | 0.00 | 80 | 1009.0 |
| 20260509080531 | 34 | 247 | 0.0 | 0.0 | 0.00 | 0.00 | 0.00 | 81 | 1009.0 |
| 20260509080029 | 34 | 247 | 0.0 | 0.0 | 0.00 | 0.00 | 0.00 | 81 | 1009.0 |
| 20260509075525 | 34 | 247 | 0.0 | 0.0 | 0.00 | 0.00 | 0.00 | 82 | 1009.2 |
| 20260509075024 | 34 | 247 | 0.0 | 0.0 | 0.00 | 0.00 | 0.00 | 83 | 1009.3 |
| 20260509074520 | 34 | 247 | 0.0 | 0.0 | 0.00 | 0.00 | 0.00 | 82 | 1009.2 |
| 20260509074017 | 35 | 247 | 0.0 | 0.0 | 0.00 | 0.00 | 0.00 | 80 | 1009.3 |
| 20260509073513 | 35 | 247 | 0.0 | 0.0 | 0.00 | 0.00 | 0.00 | 78 | 1009.1 |
| 20260509073010 | 35 | 247 | 0.0 | 0.0 | 0.00 | 0.00 | 0.00 | 78 | 1009.0 |
| 20260509072506 | 35 | 247 | 0.0 | 0.0 | 0.00 | 0.00 | 0.00 | 78 | 1009.2 |
| 20260509072003 | 36 | 247 | 0.0 | 0.0 | 0.00 | 0.00 | 0.00 | 77 | 1009.3 |
| 20260509071500 | 37 | 247 | 0.0 | 0.0 | 0.00 | 0.00 | 0.00 | 76 | 1009.1 |
| 20260509070958 | 37 | 247 | 0.0 | 0.0 | 0.00 | 0.00 | 0.00 | 75 | 1009.2 |
| 20260509070454 | 36 | 247 | 0.0 | 0.0 | 0.00 | 0.00 | 0.00 | 77 | 1009.1 |
| 20260509065950 | 36 | 248 | 0.0 | 0.0 | 0.00 | 0.00 | 0.00 | 78 | 1009.2 |
| 20260509065446 | 37 | 248 | 0.0 | 0.0 | 0.00 | 0.00 | 0.00 | 78 | 1009.3 |
| 20260509064942 | 36 | 247 | 0.9 | 0.9 | 0.00 | 0.00 | 0.00 | 78 | 1009.0 |
| 20260509064440 | 34 | 253 | 0.0 | 0.0 | 0.00 | 0.00 | 0.00 | 82 | 1009.2 |
| 20260509063938 | 33 | 253 | 0.0 | 0.0 | 0.00 | 0.00 | 0.00 | 84 | 1009.2 |
| 20260509063433 | 33 | 253 | 0.0 | 0.0 | 0.00 | 0.00 | 0.00 | 86 | 1009.4 |
| 20260509062930 | 33 | 253 | 0.0 | 0.0 | 0.00 | 0.00 | 0.00 | 83 | 1009.5 |
| 20260509062428 | 33 | 253 | 0.0 | 0.0 | 0.00 | 0.00 | 0.00 | 84 | 1009.4 |
| 20260509061925 | 33 | 253 | 0.0 | 0.0 | 0.00 | 0.00 | 0.00 | 85 | 1009.5 |
| 20260509061423 | 32 | 253 | 0.0 | 0.0 | 0.00 | 0.00 | 0.00 | 86 | 1009.5 |
| 20260509060919 | 33 | 253 | 0.0 | 0.0 | 0.00 | 0.00 | 0.00 | 86 | 1009.7 |
| 20260509060417 | 34 | 253 | 0.0 | 0.0 | 0.00 | 0.00 | 0.00 | 83 | 1009.8 |
| 20260509055911 | 34 | 253 | 0.0 | 0.0 | 0.00 | 0.00 | 0.00 | 79 | 1009.8 |
| 20260509055407 | 34 | 253 | 0.0 | 0.0 | 0.00 | 0.00 | 0.00 | 80 | 1009.7 |
| 20260509054904 | 33 | 253 | 0.0 | 0.0 | 0.00 | 0.00 | 0.00 | 82 | 1009.9 |
| 20260509054401 | 33 | 253 | 0.0 | 0.0 | 0.00 | 0.00 | 0.00 | 82 | 1009.8 |
| 20260509053859 | 33 | 253 | 0.0 | 0.0 | 0.00 | 0.00 | 0.00 | 83 | 1009.9 |
| 20260509053356 | 33 | 253 | 0.0 | 0.0 | 0.00 | 0.00 | 0.00 | 83 | 1009.8 |
| 20260509052855 | 33 | 253 | 0.0 | 0.0 | 0.00 | 0.00 | 0.00 | 84 | 1009.9 |
| 20260509052351 | 34 | 253 | 0.0 | 0.0 | 0.00 | 0.00 | 0.00 | 84 | 1009.8 |
| 20260509051849 | 33 | 253 | 0.0 | 0.0 | 0.00 | 0.00 | 0.00 | 83 | 1010.0 |
| 20260509051347 | 33 | 253 | 0.0 | 0.0 | 0.00 | 0.00 | 0.00 | 84 | 1010.0 |
| 20260509050843 | 33 | 253 | 0.0 | 0.0 | 0.00 | 0.00 | 0.00 | 84 | 1009.9 |
| 20260509050340 | 33 | 253 | 0.0 | 0.0 | 0.00 | 0.00 | 0.00 | 86 | 1010.2 |
| 20260509045837 | 34 | 253 | 0.0 | 0.0 | 0.00 | 0.00 | 0.00 | 85 | 1010.0 |
| 20260509045334 | 33 | 253 | 0.0 | 0.0 | 0.00 | 0.00 | 0.00 | 84 | 1010.4 |
| 20260509044831 | 32 | 253 | 0.0 | 0.0 | 0.00 | 0.00 | 0.00 | 88 | 1010.2 |
| 20260509044329 | 32 | 253 | 0.0 | 0.0 | 0.00 | 0.00 | 0.00 | 88 | 1010.2 |
| 20260509043825 | 32 | 253 | 0.0 | 0.0 | 0.00 | 0.00 | 0.00 | 89 | 1010.3 |
| 20260509043321 | 32 | 253 | 0.0 | 0.0 | 0.00 | 0.00 | 0.00 | 89 | 1010.3 |
| 20260509042817 | 32 | 253 | 0.0 | 0.0 | 0.00 | 0.00 | 0.00 | 89 | 1010.3 |
| 20260509042314 | 33 | 253 | 0.0 | 0.0 | 0.00 | 0.00 | 0.00 | 89 | 1010.3 |
| 20260509041810 | 34 | 253 | 0.0 | 0.0 | 0.00 | 0.00 | 0.00 | 86 | 1010.2 |
| 20260509041308 | 34 | 253 | 0.0 | 0.0 | 0.00 | 0.00 | 0.00 | 85 | 1010.2 |
| 20260509040806 | 33 | 253 | 0.0 | 0.0 | 0.00 | 0.00 | 0.00 | 84 | 1010.3 |
| 20260509040303 | 33 | 253 | 0.0 | 0.0 | 0.00 | 0.00 | 0.00 | 85 | 1010.2 |
| 20260509035800 | 34 | 253 | 0.0 | 0.0 | 0.00 | 0.00 | 0.00 | 86 | 1010.0 |
| 20260509035256 | 34 | 253 | 0.0 | 0.0 | 0.00 | 0.00 | 0.00 | 84 | 1009.9 |
| 20260509034753 | 34 | 253 | 0.0 | 0.0 | 0.00 | 0.00 | 0.00 | 82 | 1010.3 |
| 20260509034251 | 35 | 253 | 0.0 | 0.0 | 0.00 | 0.00 | 0.00 | 82 | 1010.0 |
| 20260509033748 | 35 | 253 | 0.0 | 0.0 | 0.00 | 0.00 | 0.00 | 82 | 1010.0 |
| 20260509033245 | 35 | 253 | 0.0 | 0.0 | 0.00 | 0.00 | 0.00 | 83 | 1010.2 |
| 20260509032742 | 35 | 253 | 0.0 | 0.0 | 0.00 | 0.00 | 0.00 | 82 | 1010.3 |
| 20260509032238 | 35 | 253 | 0.0 | 0.0 | 0.00 | 0.00 | 0.00 | 82 | 1010.0 |
| 20260509031736 | 35 | 253 | 0.0 | 0.0 | 0.00 | 0.00 | 0.00 | 81 | 1010.3 |
| 20260509031234 | 36 | 253 | 0.0 | 0.0 | 0.00 | 0.00 | 0.00 | 80 | 1010.2 |
| 20260509030731 | 36 | 253 | 0.0 | 0.0 | 0.00 | 0.00 | 0.00 | 80 | 1010.2 |
| 20260509030229 | 36 | 253 | 0.0 | 0.0 | 0.00 | 0.00 | 0.00 | 79 | 1010.4 |
| 20260509025725 | 36 | 253 | 0.0 | 0.0 | 0.00 | 0.00 | 0.00 | 80 | 1010.2 |
| 20260509025221 | 37 | 253 | 0.0 | 0.0 | 0.00 | 0.00 | 0.00 | 81 | 1010.3 |
| 20260509024717 | 37 | 253 | 0.0 | 0.0 | 0.00 | 0.00 | 0.00 | 79 | 1010.4 |
| 20260509024213 | 37 | 253 | 0.0 | 0.0 | 0.00 | 0.00 | 0.00 | 79 | 1010.5 |
| 20260509023710 | 37 | 253 | 0.0 | 0.0 | 0.00 | 0.00 | 0.00 | 79 | 1010.5 |
| 20260509023207 | 37 | 253 | 0.0 | 0.0 | 0.00 | 0.00 | 0.00 | 79 | 1010.6 |
| 20260509022703 | 38 | 253 | 0.0 | 0.0 | 0.00 | 0.00 | 0.00 | 78 | 1010.4 |
| 20260509022201 | 38 | 253 | 0.0 | 0.0 | 0.00 | 0.00 | 0.00 | 77 | 1010.6 |
| 20260509021658 | 38 | 253 | 0.0 | 0.0 | 0.00 | 0.00 | 0.00 | 77 | 1010.5 |
| 20260509021155 | 39 | 253 | 0.0 | 0.0 | 0.00 | 0.00 | 0.00 | 75 | 1010.6 |
| 20260509020654 | 39 | 253 | 0.0 | 0.0 | 0.00 | 0.00 | 0.00 | 74 | 1010.5 |
| 20260509020150 | 40 | 253 | 0.0 | 0.0 | 0.00 | 0.00 | 0.00 | 72 | 1010.5 |
| 20260509015649 | 40 | 253 | 0.0 | 0.0 | 0.00 | 0.00 | 0.00 | 69 | 1010.6 |
| 20260509015146 | 41 | 253 | 0.0 | 0.0 | 0.00 | 0.00 | 0.00 | 68 | 1010.4 |
| 20260509014642 | 41 | 253 | 0.0 | 0.0 | 0.00 | 0.00 | 0.00 | 67 | 1010.4 |
| 20260509014139 | 41 | 253 | 0.0 | 0.0 | 0.00 | 0.00 | 0.00 | 67 | 1010.4 |
| 20260509013636 | 40 | 253 | 0.0 | 0.0 | 0.00 | 0.00 | 0.00 | 68 | 1010.3 |
| 20260509013131 | 41 | 253 | 0.0 | 0.0 | 0.00 | 0.00 | 0.00 | 69 | 1010.4 |
| 20260509012628 | 41 | 253 | 0.0 | 0.0 | 0.00 | 0.00 | 0.00 | 67 | 1010.4 |
| 20260509012125 | 42 | 253 | 0.0 | 0.0 | 0.00 | 0.00 | 0.00 | 64 | 1009.9 |
| 20260509011623 | 42 | 253 | 0.0 | 0.0 | 0.00 | 0.00 | 0.00 | 64 | 1010.2 |
| 20260509011120 | 42 | 253 | 0.0 | 0.0 | 0.00 | 0.00 | 0.00 | 64 | 1010.2 |
| 20260509010618 | 42 | 253 | 0.0 | 0.0 | 0.00 | 0.00 | 0.00 | 63 | 1010.0 |
| 20260509010114 | 42 | 253 | 0.0 | 0.0 | 0.00 | 0.00 | 0.00 | 62 | 1009.9 |
| 20260509005612 | 42 | 253 | 0.0 | 0.0 | 0.00 | 0.00 | 0.00 | 62 | 1010.0 |
| 20260509005108 | 43 | 253 | 0.0 | 0.0 | 0.00 | 0.00 | 0.00 | 61 | 1009.9 |
| 20260509004604 | 44 | 253 | 0.0 | 0.0 | 0.00 | 0.00 | 0.00 | 60 | 1010.0 |
| 20260509004101 | 44 | 253 | 0.0 | 0.0 | 0.00 | 0.00 | 0.00 | 60 | 1009.9 |
| 20260509003559 | 45 | 253 | 0.0 | 0.0 | 0.00 | 0.00 | 0.00 | 57 | 1009.8 |
| 20260509003056 | 45 | 253 | 0.0 | 0.0 | 0.00 | 0.00 | 0.00 | 56 | 1009.9 |
| 20260509002554 | 45 | 253 | 0.0 | 0.0 | 0.00 | 0.00 | 0.00 | 55 | 1009.8 |
| 20260509002051 | 46 | 253 | 0.0 | 0.0 | 0.00 | 0.00 | 0.00 | 54 | 1009.8 |
| 20260509001548 | 46 | 253 | 0.0 | 0.0 | 0.00 | 0.00 | 0.00 | 52 | 1009.8 |
| 20260509001044 | 46 | 253 | 0.0 | 0.0 | 0.00 | 0.00 | 0.00 | 52 | 1009.8 |
| 20260509000543 | 47 | 253 | 0.9 | 1.7 | 0.00 | 0.00 | 0.00 | 51 | 1009.9 |
| 20260509000038 | 47 | 253 | 0.9 | 1.7 | 0.00 | 0.00 | 0.00 | 50 | 1009.7 |
| 20260508235537 | 48 | 262 | 1.7 | 1.7 | 0.00 | 0.00 | 0.00 | 49 | 1009.7 |
| 20260508235032 | 48 | 252 | 0.9 | 1.7 | 0.00 | 0.00 | 0.00 | 48 | 1009.7 |
| 20260508234530 | 48 | 251 | 0.9 | 0.9 | 0.00 | 0.00 | 0.00 | 49 | 1009.6 |
| 20260508234027 | 48 | 248 | 1.7 | 1.7 | 0.00 | 0.00 | 0.00 | 47 | 1009.6 |
| 20260508233526 | 49 | 277 | 0.9 | 0.9 | 0.00 | 0.00 | 0.00 | 47 | 1009.6 |
| 20260508233023 | 49 | 253 | 0.9 | 1.7 | 0.00 | 0.00 | 0.00 | 47 | 1009.6 |
| 20260508232520 | 49 | 254 | 1.7 | 2.6 | 0.00 | 0.00 | 0.00 | 47 | 1009.5 |
| 20260508232017 | 49 | 264 | 0.9 | 1.7 | 0.00 | 0.00 | 0.00 | 47 | 1009.6 |
| 20260508231514 | 49 | 251 | 0.0 | 0.9 | 0.00 | 0.00 | 0.00 | 46 | 1009.6 |
| 20260508231011 | 49 | 263 | 1.7 | 2.6 | 0.00 | 0.00 | 0.00 | 46 | 1009.7 |
| 20260508230508 | 50 | 266 | 1.7 | 1.7 | 0.00 | 0.00 | 0.00 | 44 | 1009.7 |
| 20260508230004 | 50 | 262 | 0.9 | 1.7 | 0.00 | 0.00 | 0.00 | 46 | 1009.5 |
| 20260508225502 | 50 | 245 | 1.7 | 1.7 | 0.00 | 0.00 | 0.00 | 45 | 1009.5 |
| 20260508224959 | 50 | 250 | 1.7 | 1.7 | 0.00 | 0.00 | 0.00 | 48 | 1009.6 |
| 20260508224456 | 50 | 258 | 0.9 | 0.9 | 0.00 | 0.00 | 0.00 | 44 | 1009.7 |